Time;durP1;ratioP1;P1;durP2;ratioP2;P2;SDS_P1;SDS_P2;PMS_P1;PMS_P2;Temp;Humidity;BMP_temperature;BMP_pressure;BME280_temperature;BME280_humidity;BME280_pressure;Samples;Min_cycle;Max_cycle;Signal;HPM_P1;HPM_P2
2023/02/04 00:00:44;;;;;;;;;6.50;6.00;;;;;-146.39;100.00;62182.44;6334227;20;1818235;-51
2023/02/04 00:03:13;;;;;;;;;7.00;5.00;;;;;-146.39;100.00;62182.44;6317520;20;2748263;-51
2023/02/04 00:05:42;;;;;;;;;27.00;21.67;;;;;-146.39;100.00;62182.44;6282136;20;3577450;-51
2023/02/04 00:08:11;;;;;;;;;6.75;4.25;;;;;-146.39;100.00;62182.44;6304951;20;1815018;-52
2023/02/04 00:10:39;;;;;;;;;12.50;4.00;;;;;-146.39;100.00;62182.44;6313381;20;2785744;-53
2023/02/04 00:13:07;;;;;;;;;10.75;7.00;;;;;-146.39;100.00;62182.44;6303501;20;1815868;-50
2023/02/04 00:15:35;;;;;;;;;9.00;6.50;;;;;-146.39;100.00;62182.44;6318372;20;2752834;-51
2023/02/04 00:18:04;;;;;;;;;3.50;3.00;;;;;-146.39;100.00;62182.44;6316952;20;2750405;-51
2023/02/04 00:20:33;;;;;;;;;2.25;2.25;;;;;-146.39;100.00;62182.44;6301534;20;1812017;-50
2023/02/04 00:23:02;;;;;;;;;2.00;2.00;;;;;-146.39;100.00;62182.44;6337345;20;1825858;-52
2023/02/04 00:25:31;;;;;;;;;3.00;2.00;;;;;-146.39;100.00;62182.44;6335571;20;1821322;-51
2023/02/04 00:28:00;;;;;;;;;12.60;4.80;;;;;-146.39;100.00;62182.44;6337181;20;2771275;-53
2023/02/04 00:30:29;;;;;;;;;4.75;3.50;;;;;-146.39;100.00;62182.44;6300383;20;1818067;-50
2023/02/04 00:32:58;;;;;;;;;6.75;5.00;;;;;-146.39;100.00;62182.44;6334055;20;1816989;-52
2023/02/04 00:35:26;;;;;;;;;9.00;6.00;;;;;-146.39;100.00;62182.44;6315977;20;2750339;-53
2023/02/04 00:37:54;;;;;;;;;8.00;4.00;;;;;-146.39;100.00;62182.44;6316548;20;2754525;-51
2023/02/04 00:40:23;;;;;;;;;5.75;2.50;;;;;-146.39;100.00;62182.44;6297704;20;1825439;-48
2023/02/04 00:42:51;;;;;;;;;6.00;5.50;;;;;-146.39;100.00;62182.44;6336816;20;1819967;-51
2023/02/04 00:45:20;;;;;;;;;4.00;3.00;;;;;-146.39;100.00;62182.44;6335101;20;1818109;-48
2023/02/04 00:47:48;;;;;;;;;4.00;3.00;;;;;-146.39;100.00;62182.44;6317703;20;2736773;-53
2023/02/04 00:50:16;;;;;;;;;6.75;3.00;;;;;-146.39;100.00;62182.44;6300587;20;1825344;-49
2023/02/04 00:52:45;;;;;;;;;12.00;6.00;;;;;-146.39;100.00;62182.44;6331353;20;1813848;-49
2023/02/04 00:55:16;;;;;;;;;5.25;3.00;;;;;-146.39;100.00;62182.44;6332944;20;1811770;-51
2023/02/04 00:57:46;;;;;;;;;9.25;6.50;;;;;-146.39;100.00;62182.44;6334191;20;1816987;-47
2023/02/04 01:00:16;;;;;;;;;9.00;6.00;;;;;-146.39;100.00;62182.44;6317508;20;2749239;-52
2023/02/04 01:02:44;;;;;;;;;8.00;6.25;;;;;-146.39;100.00;62182.44;6300035;20;1823305;-52
2023/02/04 01:05:12;;;;;;;;;8.00;4.00;;;;;-146.39;100.00;62182.44;6317115;20;2747244;-51
2023/02/04 01:07:39;;;;;;;;;4.00;2.67;;;;;-146.39;100.00;62182.44;6290046;20;3452761;-52
2023/02/04 01:10:09;;;;;;;;;8.25;6.00;;;;;-146.39;100.00;62182.44;6303587;20;1824399;-53
2023/02/04 01:12:37;;;;;;;;;10.00;6.00;;;;;-146.39;100.00;62182.44;6310824;20;2763859;-51
2023/02/04 01:15:06;;;;;;;;;4.00;3.00;;;;;-146.39;100.00;62182.44;6301271;20;1811830;-51
2023/02/04 01:17:37;;;;;;;;;9.83;5.83;;;;;-146.39;100.00;62182.44;6359324;20;1808112;-54
2023/02/04 01:20:10;;;;;;;;;9.33;7.17;;;;;-146.39;100.00;62182.44;6321933;20;1800297;-50
2023/02/04 01:22:38;;;;;;;;;8.75;3.25;;;;;-146.39;100.00;62182.44;6302907;20;1821160;-50
2023/02/04 01:25:07;;;;;;;;;6.00;6.00;;;;;-146.39;100.00;62182.44;6333397;20;1816013;-50
2023/02/04 01:27:35;;;;;;;;;5.00;5.00;;;;;-146.39;100.00;62182.44;6316959;20;2735717;-52
2023/02/04 01:30:05;;;;;;;;;7.75;5.00;;;;;-146.39;100.00;62182.44;6331618;20;1819190;-53
2023/02/04 01:32:34;;;;;;;;;4.50;4.50;;;;;-146.39;100.00;62182.44;6334014;20;1821342;-52
2023/02/04 01:35:03;;;;;;;;;3.00;3.00;;;;;-146.39;100.00;62182.44;6330880;20;1821212;-50
2023/02/04 01:37:31;;;;;;;;;9.00;4.00;;;;;-146.39;100.00;62182.44;6314631;20;2748284;-53
2023/02/04 01:40:00;;;;;;;;;8.25;6.50;;;;;-146.39;100.00;62182.44;6330413;20;1819121;-50
2023/02/04 01:42:27;;;;;;;;;6.00;5.00;;;;;-146.39;100.00;62182.44;6312372;20;2754490;-51
2023/02/04 01:44:55;;;;;;;;;9.00;7.00;;;;;-146.39;100.00;62182.44;6287324;20;2738935;-50
2023/02/04 01:47:24;;;;;;;;;6.50;6.50;;;;;-146.39;100.00;62182.44;6335013;20;1819129;-52
2023/02/04 01:49:54;;;;;;;;;4.00;4.00;;;;;-146.39;100.00;62182.44;6313208;20;2750284;-51
2023/02/04 01:52:23;;;;;;;;;5.00;4.25;;;;;-146.39;100.00;62182.44;6297954;20;1812322;-51
2023/02/04 01:54:52;;;;;;;;;3.00;3.00;;;;;-146.39;100.00;62182.44;6318992;20;2750282;-53
2023/02/04 01:57:20;;;;;;;;;6.00;6.00;;;;;-146.39;100.00;62182.44;6282021;20;2753415;-53
2023/02/04 01:59:51;;;;;;;;;5.00;5.00;;;;;-146.39;100.00;62182.44;6283386;20;2746140;-48
2023/02/04 02:02:40;;;;;;;;;7.00;7.00;;;;;-146.39;100.00;62182.44;6280806;20;2744192;-50
2023/02/04 02:05:19;;;;;;;;;8.00;5.25;;;;;-146.39;100.00;62182.44;6295268;20;1823315;-49
2023/02/04 02:07:49;;;;;;;;;7.00;5.00;;;;;-146.39;100.00;62182.44;6315426;20;2748296;-48
2023/02/04 02:10:18;;;;;;;;;7.75;4.25;;;;;-146.39;100.00;62182.44;6298143;20;1825333;-47
2023/02/04 02:12:48;;;;;;;;;8.00;3.00;;;;;-146.39;100.00;62182.44;6317889;20;2735711;-51
2023/02/04 02:15:17;;;;;;;;;6.00;3.50;;;;;-146.39;100.00;62182.44;6315867;20;2739871;-50
2023/02/04 02:17:45;;;;;;;;;8.50;7.00;;;;;-146.39;100.00;62182.44;6312039;20;2748456;-54
2023/02/04 02:20:17;;;;;;;;;11.75;3.50;;;;;-146.39;100.00;62182.44;6295271;20;1825426;-51
2023/02/04 02:23:45;;;;;;;;;7.25;3.75;;;;;-146.39;100.00;62182.44;6331341;20;1821258;-51
2023/02/04 02:26:15;;;;;;;;;5.00;3.50;;;;;-146.39;100.00;62182.44;6312462;20;2745042;-53
2023/02/04 02:28:48;;;;;;;;;4.25;4.25;;;;;-146.39;100.00;62182.44;6327091;20;1823355;-49
2023/02/04 02:31:20;;;;;;;;;4.50;4.00;;;;;-146.39;100.00;62182.44;6308844;20;2752374;-51
2023/02/04 02:33:49;;;;;;;;;5.00;5.00;;;;;-146.39;100.00;62182.44;6299406;20;1821259;-53
2023/02/04 02:36:18;;;;;;;;;3.67;3.67;;;;;-146.39;100.00;62182.44;6335363;20;1814973;-48
2023/02/04 02:38:47;;;;;;;;;8.50;3.00;;;;;-146.39;100.00;62182.44;6330940;20;1815982;-50
2023/02/04 02:41:15;;;;;;;;;9.50;5.00;;;;;-146.39;100.00;62182.44;6308297;20;2766970;-52
2023/02/04 02:43:43;;;;;;;;;6.00;3.50;;;;;-146.39;100.00;62182.44;6299028;20;1817086;-48
2023/02/04 02:46:11;;;;;;;;;2.00;2.00;;;;;-146.39;100.00;62182.44;6314513;20;2738852;-49
2023/02/04 02:48:39;;;;;;;;;4.00;4.00;;;;;-146.39;100.00;62182.44;6280533;20;2756689;-50
2023/02/04 02:51:07;;;;;;;;;4.00;1.00;;;;;-146.39;100.00;62182.44;6294612;20;1812855;-52
2023/02/04 02:53:36;;;;;;;;;3.00;3.00;;;;;-146.39;100.00;62182.44;6329672;20;1807661;-51
2023/02/04 02:56:04;;;;;;;;;3.50;3.50;;;;;-146.39;100.00;62182.44;6318028;20;2744044;-51
2023/02/04 02:58:37;;;;;;;;;5.00;3.00;;;;;-146.39;100.00;62182.44;6318085;20;2740994;-48
2023/02/04 03:01:09;;;;;;;;;5.75;3.25;;;;;-146.39;100.00;62182.44;6335412;20;1813916;-48
2023/02/04 03:03:50;;;;;;;;;4.25;2.25;;;;;-146.39;100.00;62182.44;6334324;20;1824296;-52
2023/02/04 03:06:25;;;;;;;;;4.50;4.25;;;;;-146.39;100.00;62182.44;6337002;20;1821253;-51
2023/02/04 03:08:56;;;;;;;;;3.00;3.00;;;;;-146.39;100.00;62182.44;6331836;20;1820302;-50
2023/02/04 03:11:25;;;;;;;;;5.00;3.50;;;;;-146.39;100.00;62182.44;6317699;20;2743039;-51
2023/02/04 03:13:53;;;;;;;;;7.00;3.00;;;;;-146.39;100.00;62182.44;6319714;20;2741889;-50
2023/02/04 03:16:21;;;;;;;;;4.00;2.50;;;;;-146.39;100.00;62182.44;6332355;20;1813865;-53
2023/02/04 03:18:50;;;;;;;;;2.50;2.50;;;;;-146.39;100.00;62182.44;6332530;20;1820206;-47
2023/02/04 03:21:18;;;;;;;;;8.00;4.00;;;;;-146.39;100.00;62182.44;6332627;20;1815062;-51
2023/02/04 03:23:47;;;;;;;;;4.50;3.50;;;;;-146.39;100.00;62182.44;6335885;20;1812801;-48
2023/02/04 03:26:16;;;;;;;;;5.00;3.00;;;;;-146.39;100.00;62182.44;6333634;20;1819138;-49
2023/02/04 03:28:44;;;;;;;;;5.00;3.25;;;;;-146.39;100.00;62182.44;6333391;20;1809728;-51
2023/02/04 03:31:13;;;;;;;;;4.00;3.50;;;;;-146.39;100.00;62182.44;6331646;20;1820210;-51
2023/02/04 03:33:42;;;;;;;;;3.75;3.00;;;;;-146.39;100.00;62182.44;6333827;20;1834771;-52
2023/02/04 03:36:10;;;;;;;;;3.00;3.00;;;;;-146.39;100.00;62182.44;6339850;20;1814990;-50
2023/02/04 03:38:38;;;;;;;;;6.00;3.00;;;;;-146.39;100.00;62182.44;6319933;20;2750323;-52
2023/02/04 03:41:07;;;;;;;;;6.00;3.50;;;;;-146.39;100.00;62182.44;6335629;20;1812852;-51
2023/02/04 03:43:35;;;;;;;;;2.50;2.50;;;;;-146.39;100.00;62182.44;6333812;20;1825440;-53
2023/02/04 03:46:04;;;;;;;;;2.25;2.25;;;;;-146.39;100.00;62182.44;6335175;20;1822303;-51
2023/02/04 03:48:33;;;;;;;;;3.00;3.00;;;;;-146.39;100.00;62182.44;6338235;20;1810811;-51
2023/02/04 03:51:01;;;;;;;;;4.00;4.00;;;;;-146.39;100.00;62182.44;6316704;20;2754440;-52
2023/02/04 03:53:29;;;;;;;;;6.00;3.50;;;;;-146.39;100.00;62182.44;6306167;20;1812843;-51
2023/02/04 03:55:57;;;;;;;;;4.00;2.50;;;;;-146.39;100.00;62182.44;6320668;20;2756612;-51
2023/02/04 03:58:26;;;;;;;;;8.00;4.00;;;;;-146.39;100.00;62182.44;6302049;20;1823320;-53
2023/02/04 04:00:54;;;;;;;;;3.00;1.00;;;;;-146.39;100.00;62182.44;6335044;20;1815649;-52
2023/02/04 04:03:23;;;;;;;;;2.00;2.00;;;;;-146.39;100.00;62182.44;6336125;20;1811891;-50
2023/02/04 04:05:51;;;;;;;;;2.25;2.25;;;;;-146.39;100.00;62182.44;6329096;20;1824355;-51
2023/02/04 04:08:19;;;;;;;;;4.00;3.00;;;;;-146.39;100.00;62182.44;6318653;20;2757020;-50
2023/02/04 04:10:47;;;;;;;;;6.25;4.00;;;;;-146.39;100.00;62182.44;6332895;20;1824904;-50
2023/02/04 04:13:16;;;;;;;;;4.50;1.75;;;;;-146.39;100.00;62182.44;6336249;20;1814966;-53
2023/02/04 04:15:44;;;;;;;;;2.00;2.00;;;;;-146.39;100.00;62182.44;6331752;20;1815667;-52
2023/02/04 04:18:13;;;;;;;;;2.75;2.00;;;;;-146.39;100.00;62182.44;6334626;20;1816107;-49
2023/02/04 04:20:41;;;;;;;;;7.50;2.50;;;;;-146.39;100.00;62182.44;6316931;20;2745158;-50
2023/02/04 04:23:09;;;;;;;;;3.00;1.25;;;;;-146.39;100.00;62182.44;6338678;20;1806012;-48
2023/02/04 04:25:38;;;;;;;;;3.25;3.00;;;;;-146.39;100.00;62182.44;6333180;20;1825349;-50
2023/02/04 04:28:06;;;;;;;;;3.50;2.00;;;;;-146.39;100.00;62182.44;6335102;20;1817975;-53
2023/02/04 04:30:34;;;;;;;;;0.00;0.00;;;;;-146.39;100.00;62182.44;6317230;20;3436815;-50
2023/02/04 04:33:02;;;;;;;;;2.00;2.00;;;;;-146.39;100.00;62182.44;6317553;20;3458644;-51
2023/02/04 04:35:30;;;;;;;;;1.50;1.00;;;;;-146.39;100.00;62182.44;6302178;20;1809546;-52
2023/02/04 04:38:02;;;;;;;;;2.00;2.00;;;;;-146.39;100.00;62182.44;6336020;20;1813835;-49
2023/02/04 04:40:31;;;;;;;;;3.00;1.25;;;;;-146.39;100.00;62182.44;6332085;20;1809715;-50
2023/02/04 04:43:00;;;;;;;;;3.50;2.00;;;;;-146.39;100.00;62182.44;6334651;20;1809720;-50
2023/02/04 04:45:28;;;;;;;;;3.75;1.00;;;;;-146.39;100.00;62182.44;6327379;20;1806289;-53
2023/02/04 04:47:56;;;;;;;;;2.00;2.00;;;;;-146.39;100.00;62182.44;6320406;20;2739879;-52
2023/02/04 04:50:24;;;;;;;;;1.25;1.25;;;;;-146.39;100.00;62182.44;6328625;20;1811805;-50
2023/02/04 04:52:53;;;;;;;;;3.75;2.00;;;;;-146.39;100.00;62182.44;6334783;20;1825393;-53
2023/02/04 04:55:21;;;;;;;;;0.25;0.00;;;;;-146.39;100.00;62182.44;6331317;20;1805611;-52
2023/02/04 04:57:50;;;;;;;;;1.00;1.00;;;;;-146.39;100.00;62182.44;6317229;20;3433760;-49
2023/02/04 05:00:20;;;;;;;;;2.75;0.00;;;;;-146.39;100.00;62182.44;6329682;20;1807811;-51
2023/02/04 05:02:48;;;;;;;;;1.67;1.00;;;;;-146.39;100.00;62182.44;6311938;20;3438937;-48
2023/02/04 05:05:17;;;;;;;;;2.25;2.25;;;;;-146.39;100.00;62182.44;6332669;20;1811916;-50
2023/02/04 05:07:45;;;;;;;;;3.25;2.00;;;;;-146.39;100.00;62182.44;6333924;20;1809785;-54
2023/02/04 05:10:14;;;;;;;;;1.75;1.00;;;;;-146.39;100.00;62182.44;6332498;20;1806664;-51
2023/02/04 05:12:43;;;;;;;;;1.75;1.75;;;;;-146.39;100.00;62182.44;6335086;20;1809663;-53
2023/02/04 05:15:12;;;;;;;;;2.00;2.00;;;;;-146.39;100.00;62182.44;6333420;20;1823322;-53
2023/02/04 05:17:40;;;;;;;;;4.50;1.00;;;;;-146.39;100.00;62182.44;6329118;20;1807624;-51
2023/02/04 05:20:11;;;;;;;;;9.80;9.20;;;;;-146.39;100.00;62182.44;6341115;20;2769172;-53
2023/02/04 05:22:39;;;;;;;;;3.75;3.25;;;;;-146.39;100.00;62182.44;6301361;20;1825416;-51
2023/02/04 05:25:07;;;;;;;;;4.00;2.50;;;;;-146.39;100.00;62182.44;6317725;20;2753444;-53
2023/02/04 05:27:35;;;;;;;;;4.50;4.00;;;;;-146.39;100.00;62182.44;6283776;20;2753870;-54
2023/02/04 05:30:06;;;;;;;;;1.33;0.00;;;;;-146.39;100.00;62182.44;6320389;20;2694231;-49
2023/02/04 05:32:34;;;;;;;;;6.00;3.00;;;;;-146.39;100.00;62182.44;6287809;20;2748200;-52
2023/02/04 05:35:03;;;;;;;;;10.50;8.00;;;;;-146.39;100.00;62182.44;6302751;20;1809150;-48
2023/02/04 05:37:33;;;;;;;;;3.00;3.00;;;;;-146.39;100.00;62182.44;6329885;20;1825359;-52
2023/02/04 05:40:04;;;;;;;;;38.00;31.33;;;;;-146.39;100.00;62182.44;6314910;20;2860768;-50
2023/02/04 05:42:31;;;;;;;;;1.00;1.00;;;;;-146.39;100.00;62182.44;6316338;20;3450290;-51
2023/02/04 05:45:00;;;;;;;;;3.00;2.00;;;;;-146.39;100.00;62182.44;6335572;20;1813856;-50
2023/02/04 05:47:29;;;;;;;;;4.00;3.25;;;;;-146.39;100.00;62182.44;6332763;20;1814951;-47
2023/02/04 05:49:57;;;;;;;;;2.00;2.00;;;;;-146.39;100.00;62182.44;6334429;20;1812834;-48
2023/02/04 05:52:25;;;;;;;;;0.75;0.75;;;;;-146.39;100.00;62182.44;6335260;20;1811878;-50
2023/02/04 05:54:53;;;;;;;;;1.00;1.00;;;;;-146.39;100.00;62182.44;6315527;20;3442018;-53
2023/02/04 05:57:23;;;;;;;;;1.33;1.33;;;;;-146.39;100.00;62182.44;6279076;20;3446125;-49
2023/02/04 05:59:52;;;;;;;;;7.00;4.50;;;;;-146.39;100.00;62182.44;6297817;20;1819154;-50
2023/02/04 06:02:20;;;;;;;;;2.25;1.25;;;;;-146.39;100.00;62182.44;6331461;20;1807702;-51
2023/02/04 06:04:49;;;;;;;;;3.00;2.25;;;;;-146.39;100.00;62182.44;6334821;20;1819139;-51
2023/02/04 06:07:17;;;;;;;;;5.75;3.00;;;;;-146.39;100.00;62182.44;6332443;20;1823231;-51
2023/02/04 06:09:46;;;;;;;;;4.75;2.00;;;;;-146.39;100.00;62182.44;6331974;20;1823371;-51
2023/02/04 06:12:14;;;;;;;;;2.25;0.50;;;;;-146.39;100.00;62182.44;6333306;20;1819121;-50
2023/02/04 06:14:43;;;;;;;;;5.00;2.00;;;;;-146.39;100.00;62182.44;6335506;20;1816991;-52
2023/02/04 06:17:11;;;;;;;;;4.00;2.75;;;;;-146.39;100.00;62182.44;6329591;20;1811897;-51
2023/02/04 06:19:40;;;;;;;;;1.00;1.00;;;;;-146.39;100.00;62182.44;6334828;20;1816012;-51
2023/02/04 06:22:08;;;;;;;;;1.67;1.67;;;;;-146.39;100.00;62182.44;6318283;20;3434628;-52
2023/02/04 06:24:35;;;;;;;;;1.00;1.00;;;;;-146.39;100.00;62182.44;6309139;20;3429509;-52
2023/02/04 06:27:06;;;;;;;;;1.00;1.00;;;;;-146.39;100.00;62182.44;6358995;20;2727862;-51
2023/02/04 06:29:34;;;;;;;;;6.50;3.00;;;;;-146.39;100.00;62182.44;6301649;20;1817959;-53
2023/02/04 06:32:02;;;;;;;;;1.00;1.00;;;;;-146.39;100.00;62182.44;6317430;20;3435721;-52
2023/02/04 06:34:31;;;;;;;;;3.50;3.25;;;;;-146.39;100.00;62182.44;6332646;20;1811827;-51
2023/02/04 06:36:58;;;;;;;;;1.00;1.00;;;;;-146.39;100.00;62182.44;6317099;20;3437792;-49
2023/02/04 06:39:27;;;;;;;;;3.50;2.00;;;;;-146.39;100.00;62182.44;6330744;20;1805543;-49
2023/02/04 06:41:55;;;;;;;;;3.00;3.00;;;;;-146.39;100.00;62182.44;6316498;20;2754453;-51
2023/02/04 06:44:22;;;;;;;;;6.00;6.00;;;;;-146.39;100.00;62182.44;6286900;20;2748227;-47
2023/02/04 06:46:51;;;;;;;;;1.50;1.00;;;;;-146.39;100.00;62182.44;6332278;20;1820269;-49
2023/02/04 06:49:20;;;;;;;;;2.00;2.00;;;;;-146.39;100.00;62182.44;6329781;20;1819179;-49
2023/02/04 06:51:51;;;;;;;;;1.75;1.00;;;;;-146.39;100.00;62182.44;6332373;20;1804497;-51
2023/02/04 06:54:19;;;;;;;;;6.75;3.25;;;;;-146.39;100.00;62182.44;6329695;20;1818175;-50
2023/02/04 06:56:47;;;;;;;;;2.33;2.33;;;;;-146.39;100.00;62182.44;6310586;20;3460391;-48
2023/02/04 06:59:15;;;;;;;;;12.00;8.00;;;;;-146.39;100.00;62182.44;6309581;20;2754455;-48
2023/02/04 07:01:43;;;;;;;;;6.00;3.00;;;;;-146.39;100.00;62182.44;6282577;20;2745080;-49
2023/02/04 07:04:11;;;;;;;;;9.50;6.50;;;;;-146.39;100.00;62182.44;6313145;20;2753494;-49
2023/02/04 07:06:38;;;;;;;;;3.00;1.00;;;;;-146.39;100.00;62182.44;6314191;20;3437797;-51
2023/02/04 07:09:07;;;;;;;;;1.00;1.00;;;;;-146.39;100.00;62182.44;6328325;20;1804459;-47
2023/02/04 07:11:34;;;;;;;;;1.67;1.67;;;;;-146.39;100.00;62182.44;6312242;20;3443017;-48
2023/02/04 07:14:02;;;;;;;;;2.00;1.00;;;;;-146.39;100.00;62182.44;6281292;20;3430739;-48
2023/02/04 07:16:30;;;;;;;;;0.00;0.00;;;;;-146.39;100.00;62182.44;6317010;20;3434639;-51
2023/02/04 07:18:57;;;;;;;;;2.00;0.00;;;;;-146.39;100.00;62182.44;6313078;20;3437993;-49
2023/02/04 07:21:26;;;;;;;;;2.00;2.00;;;;;-146.39;100.00;62182.44;6330071;20;1813898;-50
2023/02/04 07:23:54;;;;;;;;;1.00;1.00;;;;;-146.39;100.00;62182.44;6313086;20;3427391;-49
2023/02/04 07:26:22;;;;;;;;;3.00;1.33;;;;;-146.39;100.00;62182.44;6314984;20;3449357;-48
2023/02/04 07:28:50;;;;;;;;;1.00;1.00;;;;;4.37;87.29;99040.22;6312328;20;3431520;-48
2023/02/04 07:31:17;;;;;;;;;6.00;2.00;;;;;4.36;86.80;99046.50;6313649;20;3444013;-48
2023/02/04 07:33:46;;;;;;;;;0.00;0.00;;;;;4.23;86.24;99043.53;6303678;20;1806667;-51
2023/02/04 07:36:14;;;;;;;;;2.67;2.67;;;;;4.32;86.08;99047.59;6314776;20;3470135;-51
2023/02/04 07:38:42;;;;;;;;;6.00;3.00;;;;;4.45;85.76;99051.38;6298895;20;1805321;-48
2023/02/04 07:41:10;;;;;;;;;6.00;4.00;;;;;4.28;85.96;99045.97;6317418;20;2745194;-48
2023/02/04 07:43:39;;;;;;;;;3.00;3.00;;;;;4.25;85.71;99070.03;6334888;20;1825407;-49
2023/02/04 07:46:06;;;;;;;;;1.00;1.00;;;;;4.28;85.47;99072.56;6324278;20;3435686;-51
2023/02/04 07:48:34;;;;;;;;;1.00;1.00;;;;;4.24;85.90;99086.91;6316596;20;3452465;-51
2023/02/04 07:51:03;;;;;;;;;2.75;2.25;;;;;4.18;85.12;99094.22;6332181;20;1815950;-51
2023/02/04 07:53:30;;;;;;;;;4.00;4.00;;;;;4.18;85.12;99094.22;6317057;20;2752382;-49
2023/02/04 07:55:58;;;;;;;;;6.00;2.33;;;;;4.15;85.31;99126.25;6290268;20;3462755;-51
2023/02/04 07:58:26;;;;;;;;;3.00;3.00;;;;;4.17;84.78;99134.16;6302582;20;1808675;-53
2023/02/04 08:00:55;;;;;;;;;9.00;4.00;;;;;4.09;85.48;99147.78;6334861;20;1825483;-53
2023/02/04 08:03:24;;;;;;;;;3.50;2.00;;;;;4.24;84.77;99145.34;6334588;20;1820097;-53
2023/02/04 08:05:53;;;;;;;;;2.00;2.00;;;;;4.35;84.44;99143.97;6337368;20;1817999;-50
2023/02/04 08:08:21;;;;;;;;;3.50;3.50;;;;;4.33;84.59;99160.91;6334997;20;1838923;-47
2023/02/04 08:10:49;;;;;;;;;3.67;2.00;;;;;4.46;83.02;99156.75;6318088;20;3462760;-47
2023/02/04 08:13:17;;;;;;;;;3.75;2.00;;;;;4.94;82.07;99174.03;6305987;20;1823187;-50
2023/02/04 08:15:46;;;;;;;;;3.00;3.00;;;;;4.67;81.63;99170.88;6337456;20;1822700;-49
2023/02/04 08:18:14;;;;;;;;;5.25;4.25;;;;;4.67;81.68;99199.28;6334014;20;1815074;-52
2023/02/04 08:20:43;;;;;;;;;8.00;5.75;;;;;4.58;81.90;99216.47;6334964;20;1819109;-49
2023/02/04 08:23:12;;;;;;;;;7.00;5.75;;;;;4.90;83.03;99215.03;6332211;20;1810711;-51
2023/02/04 08:25:40;;;;;;;;;7.00;4.50;;;;;4.66;81.49;99224.13;6333972;20;1821218;-54
2023/02/04 08:28:08;;;;;;;;;5.00;5.00;;;;;5.38;79.11;99226.97;6319226;20;2748238;-53
2023/02/04 08:30:36;;;;;;;;;7.00;5.00;;;;;4.85;79.81;99238.31;6311504;20;2754482;-50
2023/02/04 08:33:05;;;;;;;;;7.25;5.00;;;;;4.90;79.77;99252.28;6331982;20;1819224;-54
2023/02/04 08:35:32;;;;;;;;;8.00;4.00;;;;;4.73;78.74;99268.13;6320710;20;2745086;-48
2023/02/04 08:38:01;;;;;;;;;7.75;5.50;;;;;4.61;79.10;99277.53;6334754;20;1819278;-46
2023/02/04 08:40:30;;;;;;;;;7.75;7.75;;;;;4.91;78.70;99280.59;6329705;20;1810894;-49
2023/02/04 08:42:58;;;;;;;;;9.00;8.00;;;;;4.58;78.64;99288.25;6316518;20;2748917;-50
2023/02/04 08:45:27;;;;;;;;;4.75;4.75;;;;;4.77;79.39;99293.66;6301321;20;1818625;-52
2023/02/04 08:47:54;;;;;;;;;6.00;6.00;;;;;5.02;78.11;99294.28;6317392;20;2748237;-51
2023/02/04 08:50:23;;;;;;;;;9.00;7.50;;;;;5.39;77.29;99313.00;6335421;20;1816050;-52
2023/02/04 08:52:51;;;;;;;;;6.00;6.00;;;;;5.46;75.60;99314.47;6330462;20;1823337;-51
2023/02/04 08:55:20;;;;;;;;;4.75;4.00;;;;;5.34;74.87;99325.66;6331568;20;1806585;-52
2023/02/04 08:57:48;;;;;;;;;3.75;3.75;;;;;5.39;74.70;99319.19;6329610;20;1816050;-49
2023/02/04 09:00:17;;;;;;;;;5.00;5.00;;;;;6.04;74.30;99332.16;6313156;20;2750856;-50
2023/02/04 09:02:46;;;;;;;;;3.25;2.25;;;;;5.26;73.97;99334.88;6302052;20;1812889;-49
2023/02/04 09:05:13;;;;;;;;;5.00;4.00;;;;;5.30;74.70;99330.28;6317791;20;2756617;-50
2023/02/04 09:07:42;;;;;;;;;4.25;4.00;;;;;5.21;74.32;99358.19;6302923;20;1821203;-49
2023/02/04 09:10:10;;;;;;;;;8.50;8.50;;;;;5.59;74.31;99368.88;6314977;20;2744030;-51
2023/02/04 09:12:38;;;;;;;;;9.25;8.00;;;;;6.11;71.69;99381.59;6300350;20;1811264;-48
2023/02/04 09:15:07;;;;;;;;;2.50;2.50;;;;;6.11;71.69;99381.59;6316793;20;2755520;-52
2023/02/04 09:17:36;;;;;;;;;4.00;2.50;;;;;5.78;70.11;99395.50;6302055;20;1801504;-49
2023/02/04 09:20:06;;;;;;;;;3.25;3.00;;;;;5.83;69.80;99413.97;6330983;20;1812904;-50
2023/02/04 09:22:35;;;;;;;;;5.00;5.00;;;;;5.96;70.49;99408.97;6317246;20;2743069;-50
2023/02/04 09:25:05;;;;;;;;;3.25;3.25;;;;;5.27;69.96;99420.94;6332762;20;1814950;-49
2023/02/04 09:27:33;;;;;;;;;3.00;3.00;;;;;4.92;70.29;99425.97;6333399;20;1815976;-51
2023/02/04 09:30:02;;;;;;;;;2.00;1.00;;;;;4.88;70.24;99436.81;6331404;20;1808711;-49
2023/02/04 09:32:31;;;;;;;;;3.00;2.00;;;;;4.75;70.79;99449.75;6334769;20;1818118;-51
2023/02/04 09:34:58;;;;;;;;;2.67;1.33;;;;;4.78;71.18;99453.16;6315529;20;3456522;-58
2023/02/04 09:37:28;;;;;;;;;2.00;2.00;;;;;4.70;71.27;99457.06;6334951;20;1822335;-58
2023/02/04 09:39:56;;;;;;;;;3.25;2.00;;;;;4.65;70.49;99459.91;6332511;20;1823315;-55
2023/02/04 09:42:26;;;;;;;;;6.50;3.00;;;;;4.64;71.84;99462.66;6333578;20;1840999;-58
2023/02/04 09:44:54;;;;;;;;;1.00;1.00;;;;;4.49;70.86;99470.28;6314726;20;3446182;-58
2023/02/04 09:47:24;;;;;;;;;1.50;1.50;;;;;4.46;71.68;99486.38;6301809;20;1820150;-58
2023/02/04 09:49:53;;;;;;;;;3.75;3.00;;;;;4.68;71.55;99501.47;6333980;20;1815893;-59
2023/02/04 09:52:23;;;;;;;;;2.00;2.00;;;;;-146.39;100.00;62182.44;6332265;20;1820192;-59
2023/02/04 09:54:51;;;;;;;;;1.00;1.00;;;;;-146.39;100.00;62182.44;6336178;20;1809689;-60
2023/02/04 09:57:20;;;;;;;;;4.50;3.25;;;;;4.45;70.49;99535.16;6330670;20;1822262;-58
2023/02/04 09:59:50;;;;;;;;;2.00;2.00;;;;;4.50;69.37;99550.91;6313837;20;3451301;-59
2023/02/04 10:02:26;;;;;;;;;2.33;2.33;;;;;-146.39;100.00;62182.44;6313804;20;3454457;-59
2023/02/04 10:04:57;;;;;;;;;4.00;4.00;;;;;-146.39;100.00;62182.44;6313569;20;2756590;-59
2023/02/04 10:07:26;;;;;;;;;4.00;3.00;;;;;-146.39;100.00;62182.44;6284946;20;2752997;-59
2023/02/04 10:09:55;;;;;;;;;6.75;5.75;;;;;4.54;70.63;99606.56;6331583;20;1821351;-57
2023/02/04 10:12:24;;;;;;;;;2.75;2.75;;;;;-146.39;100.00;62182.44;6330492;20;1814880;-58
2023/02/04 10:14:53;;;;;;;;;7.00;3.00;;;;;-146.39;100.00;62182.44;6330448;20;1818105;-58
2023/02/04 10:17:22;;;;;;;;;2.00;2.00;;;;;4.83;69.88;99633.84;6330294;20;1815626;-59
2023/02/04 10:19:51;;;;;;;;;5.00;5.00;;;;;4.73;69.73;99641.28;6328721;20;1821233;-59
2023/02/04 10:22:22;;;;;;;;;8.80;8.00;;;;;4.61;69.13;99645.31;6357958;20;1800347;-59
2023/02/04 10:24:51;;;;;;;;;8.00;5.00;;;;;4.70;69.42;99659.16;6332017;20;1808694;-57
2023/02/04 10:27:19;;;;;;;;;4.25;3.75;;;;;4.58;68.48;99669.34;6333891;20;1825425;-58
2023/02/04 10:29:59;;;;;;;;;13.25;8.75;;;;;4.71;70.40;99676.84;6332041;20;1812026;-59
2023/02/04 10:32:32;;;;;;;;;9.00;5.00;;;;;4.93;72.04;99691.09;6330556;20;1797668;-58
2023/02/04 10:35:02;;;;;;;;;4.50;4.50;;;;;4.99;72.64;99704.13;6328843;20;1809805;-58
2023/02/04 10:37:31;;;;;;;;;7.00;5.75;;;;;4.80;72.31;99708.44;6332886;20;1819128;-59
2023/02/04 10:39:58;;;;;;;;;8.00;8.00;;;;;4.92;70.81;99712.41;6317410;20;2742997;-56
2023/02/04 10:42:30;;;;;;;;;3.50;2.00;;;;;4.67;70.15;99723.13;6330294;20;1819159;-58
2023/02/04 10:44:59;;;;;;;;;3.00;3.00;;;;;-146.39;100.00;62182.44;6328187;20;1824407;-57
2023/02/04 10:47:30;;;;;;;;;8.00;6.00;;;;;-146.39;100.00;62182.44;6316837;20;2745075;-59
2023/02/04 10:50:07;;;;;;;;;10.00;5.75;;;;;-146.39;100.00;62182.44;6328975;20;1826461;-59
2023/02/04 10:52:42;;;;;;;;;7.00;7.00;;;;;4.80;68.87;99758.97;6313529;20;3451340;-58
2023/02/04 10:55:21;;;;;;;;;3.67;3.00;;;;;-146.39;100.00;62182.44;6313697;20;3452459;-59
2023/02/04 10:57:52;;;;;;;;;4.50;4.00;;;;;-146.39;100.00;62182.44;6328190;20;1807356;-58
2023/02/04 11:00:25;;;;;;;;;5.00;5.00;;;;;-146.39;100.00;62182.44;6330171;20;1817031;-56
2023/02/04 11:03:08;;;;;;;;;7.00;3.00;;;;;4.80;68.87;99758.97;6332733;20;1814892;-58
2023/02/04 11:05:38;;;;;;;;;2.00;2.00;;;;;-146.39;100.00;62182.44;6327949;20;1822212;-59
2023/02/04 11:08:24;;;;;;;;;3.75;2.00;;;;;-146.39;100.00;62182.44;6330334;20;1824136;-59
2023/02/04 11:11:07;;;;;;;;;1.75;1.75;;;;;4.69;63.66;99799.25;6327354;20;1811806;-60